Time,TemperatureF,DewpointF,PressureIn,WindDirection,WindDirectionDegrees,WindSpeedMPH,WindSpeedGustMPH,Humidity,HourlyPrecipIn,Conditions,Clouds,dailyrainin,SoftwareType,DateUTC
2013-07-18 00:01:00,76.6,73.8,30.09,ESE,105,0.0,3.0,91,0.00,,,0.01,meteohub,2013-07-18 04:01:00,
2013-07-18 00:02:00,76.6,73.8,30.09,SSE,152,1.0,3.0,91,0.00,,,0.01,meteohub,2013-07-18 04:02:00,
2013-07-18 00:07:00,76.6,73.4,30.09,East,82,0.0,3.0,90,0.00,,,0.01,meteohub,2013-07-18 04:07:00,
2013-07-18 00:12:00,76.8,73.6,30.09,East,81,0.0,3.0,90,0.00,,,0.01,meteohub,2013-07-18 04:12:00,
2013-07-18 00:17:00,77.2,73.9,30.09,SSW,202,1.0,3.0,90,0.00,,,0.01,meteohub,2013-07-18 04:17:00,
2013-07-18 00:22:00,77.2,73.9,30.09,SSW,193,5.0,5.0,90,0.00,,,0.01,meteohub,2013-07-18 04:22:00,
2013-07-18 00:27:00,76.6,72.9,30.09,SW,219,1.0,8.0,88,0.00,,,0.01,meteohub,2013-07-18 04:27:00,
2013-07-18 00:32:00,76.3,72.9,30.09,SE,124,0.0,8.0,89,0.00,,,0.01,meteohub,2013-07-18 04:32:00,
2013-07-18 00:37:00,75.9,72.9,30.09,South,171,0.0,8.0,90,0.01,,,0.02,meteohub,2013-07-18 04:37:00,
2013-07-18 00:42:00,75.7,72.9,30.09,South,175,0.0,5.0,91,0.01,,,0.02,meteohub,2013-07-18 04:42:00,
2013-07-18 00:47:00,75.6,72.7,30.09,South,175,0.0,5.0,91,0.01,,,0.02,meteohub,2013-07-18 04:47:00,
2013-07-18 00:52:00,75.4,72.5,30.09,South,175,0.0,4.0,91,0.01,,,0.02,meteohub,2013-07-18 04:52:00,
2013-07-18 00:57:00,75.4,72.9,30.09,South,175,0.0,1.0,92,0.01,,,0.02,meteohub,2013-07-18 04:57:00,
2013-07-18 01:02:00,75.2,73.0,30.09,South,175,0.0,0.0,93,0.01,,,0.02,meteohub,2013-07-18 05:02:00,
2013-07-18 01:07:00,75.0,72.9,30.09,South,175,0.0,0.0,93,0.01,,,0.02,meteohub,2013-07-18 05:07:00,
2013-07-18 01:12:00,74.8,72.7,30.09,South,175,0.0,0.0,93,0.01,,,0.02,meteohub,2013-07-18 05:12:00,
2013-07-18 01:17:00,74.8,72.7,30.09,South,175,0.0,0.0,93,0.01,,,0.02,meteohub,2013-07-18 05:17:00,
2013-07-18 01:22:00,74.7,72.9,30.09,South,175,0.0,0.0,94,0.01,,,0.02,meteohub,2013-07-18 05:22:00,
2013-07-18 01:27:00,74.7,72.9,30.09,South,175,0.0,0.0,94,0.01,,,0.02,meteohub,2013-07-18 05:27:00,
2013-07-18 01:32:00,74.7,72.9,30.09,East,91,0.0,0.0,94,0.01,,,0.02,meteohub,2013-07-18 05:32:00,
2013-07-18 01:37:00,74.7,72.9,30.09,SE,132,4.0,5.0,94,0.00,,,0.02,meteohub,2013-07-18 05:37:00,
2013-07-18 01:42:00,74.8,73.0,30.09,East,101,3.0,7.0,94,0.00,,,0.02,meteohub,2013-07-18 05:42:00,
2013-07-18 01:47:00,74.8,72.7,30.09,SE,130,4.0,10.0,93,0.00,,,0.02,meteohub,2013-07-18 05:47:00,
2013-07-18 01:52:00,74.5,72.0,30.09,SSW,198,2.0,10.0,92,0.01,,,0.03,meteohub,2013-07-18 05:52:00,
2013-07-18 01:57:00,74.3,71.8,30.09,SSE,148,2.0,10.0,92,0.01,,,0.03,meteohub,2013-07-18 05:57:00,
2013-07-18 02:02:00,74.1,72.0,30.09,SSE,161,1.0,10.0,93,0.01,,,0.03,meteohub,2013-07-18 06:02:00,
2013-07-18 02:07:00,74.1,72.3,30.09,NNE,15,0.0,9.0,94,0.02,,,0.03,meteohub,2013-07-18 06:07:00,
2013-07-18 02:12:00,73.9,72.1,30.08,NNE,25,1.0,5.0,94,0.04,,,0.06,meteohub,2013-07-18 06:12:00,
2013-07-18 02:17:00,73.8,72.0,30.08,SSE,149,0.0,4.0,94,0.06,,,0.07,meteohub,2013-07-18 06:17:00,
2013-07-18 02:22:00,73.6,72.1,30.08,SE,134,0.0,4.0,95,0.07,,,0.09,meteohub,2013-07-18 06:22:00,
2013-07-18 02:27:00,73.6,72.1,30.08,SE,134,0.0,2.0,95,0.08,,,0.10,meteohub,2013-07-18 06:27:00,
2013-07-18 02:32:00,73.6,72.1,30.07,SE,134,0.0,2.0,95,0.09,,,0.11,meteohub,2013-07-18 06:32:00,
2013-07-18 02:37:00,73.4,72.0,30.08,SSE,157,0.0,4.0,95,0.09,,,0.11,meteohub,2013-07-18 06:37:00,
2013-07-18 02:42:00,73.2,71.8,30.07,SE,144,0.0,4.0,95,0.10,,,0.12,meteohub,2013-07-18 06:42:00,
2013-07-18 02:47:00,73.2,71.8,30.08,South,175,0.0,4.0,95,0.10,,,0.12,meteohub,2013-07-18 06:47:00,
2013-07-18 02:52:00,73.2,72.0,30.07,SSE,157,0.0,3.0,96,0.10,,,0.13,meteohub,2013-07-18 06:52:00,
2013-07-18 02:57:00,73.2,72.0,30.07,SE,126,0.0,4.0,96,0.11,,,0.14,meteohub,2013-07-18 06:57:00,
2013-07-18 03:02:00,73.2,72.0,30.07,SE,126,0.0,4.0,96,0.12,,,0.15,meteohub,2013-07-18 07:02:00,
2013-07-18 03:07:00,73.2,72.0,30.07,SE,126,0.0,4.0,96,0.12,,,0.16,meteohub,2013-07-18 07:07:00,
2013-07-18 03:12:00,73.4,72.1,30.07,SE,126,0.0,0.0,96,0.10,,,0.16,meteohub,2013-07-18 07:12:00,
2013-07-18 03:17:00,73.6,72.7,30.07,SE,143,0.0,0.0,97,0.09,,,0.17,meteohub,2013-07-18 07:17:00,
2013-07-18 03:22:00,73.8,72.9,30.07,East,100,0.0,1.0,97,0.09,,,0.18,meteohub,2013-07-18 07:22:00,
2013-07-18 03:27:00,73.8,72.9,30.07,East,100,0.0,1.0,97,0.08,,,0.18,meteohub,2013-07-18 07:27:00,
2013-07-18 03:32:00,73.8,72.9,30.07,East,100,0.0,1.0,97,0.09,,,0.19,meteohub,2013-07-18 07:32:00,
2013-07-18 03:37:00,73.6,72.3,30.07,East,100,0.0,1.0,96,0.09,,,0.20,meteohub,2013-07-18 07:37:00,
2013-07-18 03:42:00,73.6,72.3,30.07,SE,136,0.0,0.0,96,0.10,,,0.21,meteohub,2013-07-18 07:42:00,
2013-07-18 03:47:00,73.4,72.1,30.07,SE,136,0.0,0.0,96,0.10,,,0.22,meteohub,2013-07-18 07:47:00,
2013-07-18 03:52:00,73.2,72.0,30.07,SE,136,0.0,0.0,96,0.09,,,0.22,meteohub,2013-07-18 07:52:00,
2013-07-18 03:57:00,73.0,71.8,30.07,ESE,117,0.0,0.0,96,0.08,,,0.22,meteohub,2013-07-18 07:57:00,
2013-07-18 04:02:00,73.0,72.1,30.07,ESE,117,0.0,0.0,97,0.07,,,0.22,meteohub,2013-07-18 08:02:00,
2013-07-18 04:07:00,73.0,72.1,30.06,ESE,105,0.0,0.0,97,0.06,,,0.22,meteohub,2013-07-18 08:07:00,
2013-07-18 04:12:00,73.0,72.1,30.06,ESE,105,0.0,0.0,97,0.06,,,0.22,meteohub,2013-07-18 08:12:00,
2013-07-18 04:17:00,73.0,72.1,30.06,ESE,105,0.0,0.0,97,0.05,,,0.22,meteohub,2013-07-18 08:17:00,
2013-07-18 04:22:00,73.0,72.1,30.06,ESE,104,0.0,0.0,97,0.05,,,0.23,meteohub,2013-07-18 08:22:00,
2013-07-18 04:28:00,73.0,72.1,30.06,ESE,104,0.0,0.0,97,0.05,,,0.23,meteohub,2013-07-18 08:28:00,
2013-07-18 04:33:00,73.0,72.1,30.06,ESE,102,0.0,0.0,97,0.03,,,0.23,meteohub,2013-07-18 08:33:00,
2013-07-18 04:38:00,73.2,72.3,30.07,ESE,102,0.0,0.0,97,0.03,,,0.23,meteohub,2013-07-18 08:38:00,
2013-07-18 04:43:00,73.2,72.3,30.07,ESE,102,0.0,0.0,97,0.01,,,0.23,meteohub,2013-07-18 08:43:00,
2013-07-18 04:48:00,73.2,72.3,30.07,ESE,102,0.0,0.0,97,0.01,,,0.23,meteohub,2013-07-18 08:48:00,
2013-07-18 04:53:00,73.6,72.7,30.07,ESE,102,0.0,0.0,97,0.01,,,0.23,meteohub,2013-07-18 08:53:00,
2013-07-18 04:58:00,73.6,72.7,30.07,East,98,0.0,1.0,97,0.01,,,0.23,meteohub,2013-07-18 08:58:00,
2013-07-18 05:03:00,73.4,72.5,30.07,East,98,0.0,1.0,97,0.01,,,0.23,meteohub,2013-07-18 09:03:00,
2013-07-18 05:08:00,73.2,72.3,30.06,East,98,0.0,1.0,97,0.01,,,0.23,meteohub,2013-07-18 09:08:00,
2013-07-18 05:13:00,73.2,72.3,30.06,East,98,0.0,0.0,97,0.01,,,0.23,meteohub,2013-07-18 09:13:00,
2013-07-18 05:18:00,73.0,72.1,30.06,East,98,0.0,0.0,97,0.01,,,0.23,meteohub,2013-07-18 09:18:00,
2013-07-18 05:23:00,72.9,72.0,30.06,East,98,0.0,0.0,97,0.00,,,0.23,meteohub,2013-07-18 09:23:00,
2013-07-18 05:28:00,72.9,72.0,30.06,East,98,0.0,0.0,97,0.00,,,0.23,meteohub,2013-07-18 09:28:00,
2013-07-18 05:33:00,72.9,72.0,30.06,East,98,0.0,0.0,97,0.00,,,0.23,meteohub,2013-07-18 09:33:00,
2013-07-18 05:38:00,72.7,71.8,30.07,East,98,0.0,0.0,97,0.00,,,0.23,meteohub,2013-07-18 09:38:00,
2013-07-18 05:43:00,72.7,71.8,30.07,East,98,0.0,0.0,97,0.00,,,0.23,meteohub,2013-07-18 09:43:00,
2013-07-18 05:48:00,72.7,71.8,30.07,East,98,0.0,0.0,97,0.00,,,0.23,meteohub,2013-07-18 09:48:00,
2013-07-18 05:53:00,72.7,71.8,30.07,East,98,0.0,0.0,97,0.00,,,0.23,meteohub,2013-07-18 09:53:00,
2013-07-18 05:58:00,72.7,71.8,30.08,East,98,0.0,0.0,97,0.00,,,0.23,meteohub,2013-07-18 09:58:00,
2013-07-18 06:03:00,72.7,71.8,30.08,East,98,0.0,0.0,97,0.00,,,0.23,meteohub,2013-07-18 10:03:00,
2013-07-18 06:08:00,72.7,71.8,30.08,East,98,0.0,0.0,97,0.00,,,0.23,meteohub,2013-07-18 10:08:00,
2013-07-18 06:13:00,72.7,71.8,30.08,East,98,0.0,0.0,97,0.00,,,0.23,meteohub,2013-07-18 10:13:00,
2013-07-18 06:18:00,72.7,71.8,30.08,East,98,0.0,0.0,97,0.00,,,0.23,meteohub,2013-07-18 10:18:00,
2013-07-18 06:23:00,72.7,71.8,30.08,East,98,0.0,0.0,97,0.00,,,0.23,meteohub,2013-07-18 10:23:00,
2013-07-18 06:28:00,72.7,71.8,30.08,East,98,0.0,0.0,97,0.00,,,0.23,meteohub,2013-07-18 10:28:00,
2013-07-18 06:33:00,72.7,71.8,30.08,East,98,0.0,0.0,97,0.00,,,0.23,meteohub,2013-07-18 10:33:00,
2013-07-18 06:38:00,72.7,71.8,30.09,East,98,0.0,0.0,97,0.00,,,0.23,meteohub,2013-07-18 10:38:00,
2013-07-18 06:43:00,72.7,71.8,30.09,East,98,0.0,0.0,97,0.00,,,0.23,meteohub,2013-07-18 10:43:00,
2013-07-18 06:48:00,72.5,71.6,30.09,East,98,0.0,0.0,97,0.00,,,0.23,meteohub,2013-07-18 10:48:00,
2013-07-18 06:53:00,72.7,72.1,30.09,East,98,0.0,0.0,98,0.00,,,0.23,meteohub,2013-07-18 10:53:00,
2013-07-18 06:58:00,72.7,72.1,30.09,East,98,0.0,0.0,98,0.00,,,0.23,meteohub,2013-07-18 10:58:00,
2013-07-18 07:03:00,72.7,72.1,30.09,East,98,0.0,0.0,98,0.00,,,0.23,meteohub,2013-07-18 11:03:00,
2013-07-18 07:08:00,72.7,72.1,30.09,East,98,0.0,0.0,98,0.00,,,0.23,meteohub,2013-07-18 11:08:00,
2013-07-18 07:13:00,72.7,72.1,30.09,East,98,0.0,0.0,98,0.00,,,0.23,meteohub,2013-07-18 11:13:00,
2013-07-18 07:18:00,72.9,72.3,30.09,East,98,0.0,0.0,98,0.00,,,0.23,meteohub,2013-07-18 11:18:00,
2013-07-18 07:23:00,72.9,72.3,30.09,East,98,0.0,0.0,98,0.00,,,0.23,meteohub,2013-07-18 11:23:00,
2013-07-18 07:28:00,73.0,72.5,30.09,East,98,0.0,0.0,98,0.00,,,0.23,meteohub,2013-07-18 11:28:00,
2013-07-18 07:33:00,73.0,72.5,30.09,East,98,0.0,0.0,98,0.00,,,0.23,meteohub,2013-07-18 11:33:00,
2013-07-18 07:38:00,73.2,72.7,30.09,East,98,0.0,0.0,98,0.00,,,0.23,meteohub,2013-07-18 11:38:00,
2013-07-18 07:43:00,73.4,72.9,30.09,East,98,0.0,0.0,98,0.00,,,0.23,meteohub,2013-07-18 11:43:00,
2013-07-18 07:48:00,73.8,73.2,30.10,East,98,0.0,0.0,98,0.00,,,0.23,meteohub,2013-07-18 11:48:00,
2013-07-18 07:53:00,73.9,73.4,30.10,East,98,0.0,0.0,98,0.00,,,0.23,meteohub,2013-07-18 11:53:00,
2013-07-18 07:58:00,74.5,74.1,30.10,East,98,0.0,0.0,99,0.00,,,0.23,meteohub,2013-07-18 11:58:00,
2013-07-18 08:03:00,74.8,74.3,30.10,SE,134,0.0,0.0,98,0.00,,,0.23,meteohub,2013-07-18 12:03:00,
2013-07-18 08:08:00,75.4,75.0,30.10,SE,134,0.0,1.0,99,0.00,,,0.23,meteohub,2013-07-18 12:08:00,
2013-07-18 08:13:00,75.4,74.8,30.11,SE,133,0.0,1.0,98,0.00,,,0.23,meteohub,2013-07-18 12:13:00,
2013-07-18 08:18:00,75.4,74.5,30.11,ENE,73,0.0,1.0,97,0.00,,,0.23,meteohub,2013-07-18 12:18:00,
2013-07-18 08:23:00,75.4,74.5,30.11,ESE,123,0.0,1.0,97,0.00,,,0.23,meteohub,2013-07-18 12:23:00,
2013-07-18 08:28:00,75.2,74.3,30.11,ESE,123,0.0,1.0,97,0.00,,,0.23,meteohub,2013-07-18 12:28:00,
2013-07-18 08:33:00,75.0,74.1,30.11,ESE,109,0.0,1.0,97,0.00,,,0.23,meteohub,2013-07-18 12:33:00,
2013-07-18 08:38:00,75.2,73.9,30.11,ESE,109,0.0,1.0,96,0.00,,,0.23,meteohub,2013-07-18 12:38:00,
2013-07-18 08:43:00,75.4,74.5,30.10,ESE,109,0.0,1.0,97,0.00,,,0.23,meteohub,2013-07-18 12:43:00,
2013-07-18 08:48:00,75.7,74.8,30.10,ESE,106,0.0,0.0,97,0.00,,,0.23,meteohub,2013-07-18 12:48:00,
2013-07-18 08:53:00,76.1,75.2,30.11,ESE,106,0.0,0.0,97,0.00,,,0.23,meteohub,2013-07-18 12:53:00,
2013-07-18 08:59:00,76.8,75.9,30.10,East,99,0.0,0.0,97,0.00,,,0.23,meteohub,2013-07-18 12:59:00,
2013-07-18 09:04:00,77.5,75.9,30.11,SE,133,0.0,1.0,95,0.00,,,0.23,meteohub,2013-07-18 13:04:00,
2013-07-18 09:09:00,78.1,76.3,30.11,ENE,75,0.0,3.0,94,0.00,,,0.23,meteohub,2013-07-18 13:09:00,
2013-07-18 09:14:00,78.8,76.3,30.12,NE,45,0.0,3.0,92,0.00,,,0.23,meteohub,2013-07-18 13:14:00,
2013-07-18 09:19:00,79.0,75.4,30.12,East,93,0.0,3.0,89,0.00,,,0.23,meteohub,2013-07-18 13:19:00,
2013-07-18 09:24:00,79.2,75.9,30.12,SSE,159,0.0,3.0,90,0.00,,,0.23,meteohub,2013-07-18 13:24:00,
2013-07-18 09:29:00,79.5,76.3,30.12,ENE,61,0.0,3.0,90,0.00,,,0.23,meteohub,2013-07-18 13:29:00,
2013-07-18 09:34:00,79.9,75.9,30.12,NE,49,1.0,3.0,88,0.00,,,0.23,meteohub,2013-07-18 13:34:00,
2013-07-18 09:39:00,79.9,75.7,30.12,SE,128,0.0,3.0,87,0.00,,,0.23,meteohub,2013-07-18 13:39:00,
2013-07-18 09:44:00,80.1,76.1,30.13,SE,124,0.0,2.0,88,0.00,,,0.23,meteohub,2013-07-18 13:44:00,
2013-07-18 09:49:00,80.1,75.9,30.13,SE,126,0.0,2.0,87,0.00,,,0.23,meteohub,2013-07-18 13:49:00,
2013-07-18 09:54:00,79.9,75.7,30.13,SSE,158,0.0,3.0,87,0.00,,,0.23,meteohub,2013-07-18 13:54:00,
2013-07-18 09:59:00,79.9,75.7,30.13,ESE,111,0.0,4.0,87,0.00,,,0.23,meteohub,2013-07-18 13:59:00,
2013-07-18 10:04:00,79.7,75.2,30.13,SE,138,4.0,4.0,86,0.00,,,0.23,meteohub,2013-07-18 14:04:00,
2013-07-18 10:09:00,79.5,75.0,30.12,SE,124,0.0,6.0,86,0.00,,,0.23,meteohub,2013-07-18 14:09:00,
2013-07-18 10:14:00,79.5,75.4,30.12,ENE,66,0.0,6.0,87,0.00,,,0.23,meteohub,2013-07-18 14:14:00,
2013-07-18 10:19:00,79.3,75.7,30.12,East,93,0.0,6.0,89,0.01,,,0.24,meteohub,2013-07-18 14:19:00,
2013-07-18 10:24:00,79.0,75.4,30.12,ESE,107,0.0,4.0,89,0.03,,,0.26,meteohub,2013-07-18 14:24:00,
2013-07-18 10:29:00,78.3,74.7,30.12,SSE,151,0.0,4.0,89,0.03,,,0.26,meteohub,2013-07-18 14:29:00,
2013-07-18 10:34:00,77.4,73.9,30.12,SE,139,0.0,7.0,89,0.06,,,0.28,meteohub,2013-07-18 14:34:00,
2013-07-18 10:39:00,76.8,73.9,30.12,SE,130,0.0,7.0,91,0.06,,,0.29,meteohub,2013-07-18 14:39:00,
2013-07-18 10:44:00,76.6,74.5,30.12,ESE,107,0.0,7.0,93,0.07,,,0.30,meteohub,2013-07-18 14:44:00,
2013-07-18 10:49:00,77.0,75.2,30.12,ENE,62,0.0,4.0,94,0.07,,,0.30,meteohub,2013-07-18 14:49:00,
2013-07-18 10:54:00,77.2,75.0,30.12,NNE,14,0.0,3.0,93,0.07,,,0.30,meteohub,2013-07-18 14:54:00,
2013-07-18 10:59:00,77.2,75.0,30.12,East,94,0.0,4.0,93,0.07,,,0.30,meteohub,2013-07-18 14:59:00,
2013-07-18 11:04:00,77.5,75.4,30.12,ESE,115,0.0,4.0,93,0.07,,,0.30,meteohub,2013-07-18 15:04:00,
2013-07-18 11:09:00,77.7,75.6,30.12,East,96,1.0,4.0,93,0.07,,,0.30,meteohub,2013-07-18 15:09:00,
2013-07-18 11:14:00,77.7,75.2,30.12,SE,129,0.0,4.0,92,0.07,,,0.30,meteohub,2013-07-18 15:14:00,
2013-07-18 11:19:00,78.1,75.6,30.12,ESE,121,0.0,3.0,92,0.06,,,0.30,meteohub,2013-07-18 15:19:00,
2013-07-18 11:24:00,78.3,75.4,30.12,SSE,161,0.0,3.0,91,0.04,,,0.30,meteohub,2013-07-18 15:24:00,
2013-07-18 11:29:00,78.3,75.4,30.12,NNE,26,0.0,3.0,91,0.04,,,0.30,meteohub,2013-07-18 15:29:00,
2013-07-18 11:34:00,78.4,75.2,30.12,SE,129,0.0,3.0,90,0.01,,,0.30,meteohub,2013-07-18 15:34:00,
2013-07-18 11:39:00,78.4,74.8,30.12,SE,132,0.0,3.0,89,0.01,,,0.30,meteohub,2013-07-18 15:39:00,
2013-07-18 11:44:00,79.0,75.4,30.13,SSE,162,1.0,4.0,89,0.00,,,0.30,meteohub,2013-07-18 15:44:00,
2013-07-18 11:49:00,79.3,75.7,30.13,NNE,29,0.0,4.0,89,0.00,,,0.30,meteohub,2013-07-18 15:49:00,
2013-07-18 11:54:00,79.7,75.7,30.13,East,80,0.0,4.0,88,0.00,,,0.30,meteohub,2013-07-18 15:54:00,
2013-07-18 11:59:00,80.1,75.9,30.13,ESE,111,0.0,2.0,87,0.00,,,0.30,meteohub,2013-07-18 15:59:00,
2013-07-18 12:04:00,80.2,76.1,30.13,SE,128,0.0,5.0,87,0.00,,,0.30,meteohub,2013-07-18 16:04:00,
2013-07-18 12:09:00,80.4,75.9,30.13,East,90,1.0,5.0,86,0.00,,,0.30,meteohub,2013-07-18 16:09:00,
2013-07-18 12:14:00,80.8,76.3,30.13,SSE,165,0.0,5.0,86,0.00,,,0.30,meteohub,2013-07-18 16:14:00,
2013-07-18 12:19:00,80.8,75.6,30.13,SSE,165,5.0,5.0,84,0.00,,,0.30,meteohub,2013-07-18 16:19:00,
2013-07-18 12:24:00,81.0,76.1,30.13,ESE,111,1.0,5.0,85,0.01,,,0.31,meteohub,2013-07-18 16:24:00,
2013-07-18 12:29:00,81.0,76.1,30.13,SSE,165,1.0,7.0,85,0.01,,,0.31,meteohub,2013-07-18 16:29:00,
2013-07-18 12:34:00,81.1,76.5,30.13,SE,128,0.0,7.0,86,0.01,,,0.31,meteohub,2013-07-18 16:34:00,
2013-07-18 12:39:00,81.7,75.6,30.13,SSE,165,1.0,7.0,82,0.01,,,0.31,meteohub,2013-07-18 16:39:00,
2013-07-18 12:44:00,81.9,75.0,30.12,ESE,112,2.0,6.0,80,0.01,,,0.31,meteohub,2013-07-18 16:44:00,
2013-07-18 12:49:00,82.2,75.4,30.12,South,189,0.0,9.0,80,0.01,,,0.31,meteohub,2013-07-18 16:49:00,
2013-07-18 12:54:00,82.9,76.8,30.12,East,92,0.0,9.0,82,0.01,,,0.31,meteohub,2013-07-18 16:54:00,
2013-07-18 12:59:00,82.8,76.3,30.12,East,92,0.0,9.0,81,0.01,,,0.31,meteohub,2013-07-18 16:59:00,
2013-07-18 13:05:00,82.6,76.1,30.12,South,173,3.0,6.0,81,0.01,,,0.31,meteohub,2013-07-18 17:05:00,
2013-07-18 13:10:00,82.6,75.7,30.12,ENE,66,0.0,6.0,80,0.01,,,0.31,meteohub,2013-07-18 17:10:00,
2013-07-18 13:15:00,82.6,76.1,30.11,ENE,63,0.0,5.0,81,0.01,,,0.31,meteohub,2013-07-18 17:15:00,
2013-07-18 13:20:00,82.8,75.6,30.11,NE,55,1.0,5.0,79,0.01,,,0.31,meteohub,2013-07-18 17:20:00,
2013-07-18 13:25:00,82.8,75.9,30.11,East,79,2.0,5.0,80,0.00,,,0.31,meteohub,2013-07-18 17:25:00,
2013-07-18 13:30:00,82.9,75.7,30.11,ENE,65,3.0,5.0,79,0.00,,,0.31,meteohub,2013-07-18 17:30:00,
2013-07-18 13:35:00,83.1,75.6,30.11,ESE,118,4.0,4.0,78,0.00,,,0.31,meteohub,2013-07-18 17:35:00,
2013-07-18 13:40:00,83.1,75.9,30.11,ENE,57,1.0,4.0,79,0.00,,,0.31,meteohub,2013-07-18 17:40:00,
2013-07-18 13:45:00,83.5,76.3,30.11,NE,52,0.0,4.0,79,0.00,,,0.31,meteohub,2013-07-18 17:45:00,
2013-07-18 13:50:00,84.0,76.5,30.11,SE,143,0.0,4.0,78,0.00,,,0.31,meteohub,2013-07-18 17:50:00,
2013-07-18 13:55:00,84.6,76.1,30.11,ESE,120,0.0,3.0,76,0.00,,,0.31,meteohub,2013-07-18 17:55:00,
2013-07-18 14:00:00,84.6,76.1,30.11,ESE,120,1.0,5.0,76,0.00,,,0.31,meteohub,2013-07-18 18:00:00,
2013-07-18 14:05:00,84.2,76.3,30.11,East,94,0.0,5.0,77,0.00,,,0.31,meteohub,2013-07-18 18:05:00,
2013-07-18 14:10:00,84.0,76.8,30.11,ENE,65,0.0,5.0,79,0.00,,,0.31,meteohub,2013-07-18 18:10:00,
2013-07-18 14:15:00,83.7,76.5,30.11,South,174,3.0,5.0,79,0.00,,,0.31,meteohub,2013-07-18 18:15:00,
2013-07-18 14:20:00,83.5,76.6,30.11,NE,46,0.0,3.0,80,0.00,,,0.31,meteohub,2013-07-18 18:20:00,
2013-07-18 14:25:00,83.1,75.6,30.10,SE,144,2.0,4.0,78,0.00,,,0.31,meteohub,2013-07-18 18:25:00,
2013-07-18 14:30:00,82.9,75.4,30.10,SE,133,0.0,4.0,78,0.00,,,0.31,meteohub,2013-07-18 18:30:00,
2013-07-18 14:35:00,83.3,75.7,30.10,ESE,105,3.0,4.0,78,0.00,,,0.31,meteohub,2013-07-18 18:35:00,
2013-07-18 14:40:00,83.3,76.1,30.10,SSE,161,1.0,5.0,79,0.00,,,0.31,meteohub,2013-07-18 18:40:00,
2013-07-18 14:45:00,83.1,76.3,30.09,SE,139,0.0,5.0,80,0.00,,,0.31,meteohub,2013-07-18 18:45:00,
2013-07-18 14:50:00,83.5,76.6,30.09,SSE,148,0.0,5.0,80,0.00,,,0.31,meteohub,2013-07-18 18:50:00,
2013-07-18 14:55:00,84.0,76.8,30.09,SE,129,0.0,4.0,79,0.00,,,0.31,meteohub,2013-07-18 18:55:00,
2013-07-18 15:00:00,83.7,76.5,30.09,South,175,0.0,5.0,79,0.00,,,0.31,meteohub,2013-07-18 19:00:00,
2013-07-18 15:05:00,83.7,76.8,30.09,SE,144,2.0,5.0,80,0.00,,,0.31,meteohub,2013-07-18 19:05:00,
2013-07-18 15:10:00,83.5,76.6,30.09,NE,46,1.0,5.0,80,0.00,,,0.31,meteohub,2013-07-18 19:10:00,
2013-07-18 15:15:00,83.1,76.6,30.09,WSW,251,1.0,5.0,81,0.00,,,0.31,meteohub,2013-07-18 19:15:00,
2013-07-18 15:20:00,83.1,76.6,30.08,NNE,31,0.0,5.0,81,0.00,,,0.31,meteohub,2013-07-18 19:20:00,
2013-07-18 15:25:00,83.1,76.6,30.08,ESE,113,2.0,5.0,81,0.00,,,0.31,meteohub,2013-07-18 19:25:00,
2013-07-18 15:30:00,83.1,76.6,30.08,NE,49,0.0,5.0,81,0.00,,,0.31,meteohub,2013-07-18 19:30:00,
2013-07-18 15:35:00,82.9,76.5,30.08,SE,135,0.0,5.0,81,0.00,,,0.31,meteohub,2013-07-18 19:35:00,
2013-07-18 15:40:00,82.9,76.8,30.08,NNE,17,0.0,4.0,82,0.00,,,0.31,meteohub,2013-07-18 19:40:00,
2013-07-18 15:45:00,83.1,77.0,30.08,South,174,1.0,4.0,82,0.00,,,0.31,meteohub,2013-07-18 19:45:00,
2013-07-18 15:50:00,83.1,77.0,30.08,SE,133,0.0,3.0,82,0.00,,,0.31,meteohub,2013-07-18 19:50:00,
2013-07-18 15:55:00,83.1,77.0,30.08,SSE,153,0.0,3.0,82,0.00,,,0.31,meteohub,2013-07-18 19:55:00,
2013-07-18 16:00:00,83.1,77.0,30.08,SSE,150,2.0,3.0,82,0.00,,,0.31,meteohub,2013-07-18 20:00:00,
2013-07-18 16:05:00,83.1,77.4,30.08,SE,134,0.0,3.0,83,0.00,,,0.31,meteohub,2013-07-18 20:05:00,
2013-07-18 16:10:00,83.3,77.2,30.08,SSE,161,0.0,3.0,82,0.00,,,0.31,meteohub,2013-07-18 20:10:00,
2013-07-18 16:15:00,83.1,77.0,30.09,SE,135,3.0,5.0,82,0.00,,,0.31,meteohub,2013-07-18 20:15:00,
2013-07-18 16:20:00,82.8,77.0,30.09,SE,145,0.0,5.0,83,0.00,,,0.31,meteohub,2013-07-18 20:20:00,
2013-07-18 16:25:00,82.9,77.2,30.08,ESE,112,0.0,5.0,83,0.00,,,0.31,meteohub,2013-07-18 20:25:00,
2013-07-18 16:30:00,82.8,77.0,30.08,ESE,120,0.0,5.0,83,0.00,,,0.31,meteohub,2013-07-18 20:30:00,
2013-07-18 16:36:00,82.8,77.0,30.07,SE,138,1.0,5.0,83,0.00,,,0.31,meteohub,2013-07-18 20:36:00,
2013-07-18 16:41:00,82.8,77.0,30.07,SE,146,0.0,5.0,83,0.00,,,0.31,meteohub,2013-07-18 20:41:00,
2013-07-18 16:46:00,82.6,76.8,30.07,NNW,346,0.0,7.0,83,0.00,,,0.31,meteohub,2013-07-18 20:46:00,
2013-07-18 16:51:00,82.8,77.0,30.08,SSE,167,3.0,7.0,83,0.00,,,0.31,meteohub,2013-07-18 20:51:00,
2013-07-18 16:56:00,82.4,76.6,30.08,East,101,0.0,7.0,83,0.00,,,0.31,meteohub,2013-07-18 20:56:00,
2013-07-18 17:01:00,82.6,76.8,30.08,SSE,155,0.0,6.0,83,0.00,,,0.31,meteohub,2013-07-18 21:01:00,
2013-07-18 17:06:00,82.6,76.5,30.08,South,190,2.0,6.0,82,0.00,,,0.31,meteohub,2013-07-18 21:06:00,
2013-07-18 17:11:00,82.6,76.5,30.08,SSW,203,2.0,6.0,82,0.00,,,0.31,meteohub,2013-07-18 21:11:00,
2013-07-18 17:16:00,81.0,71.1,30.10,West,267,8.0,12.0,72,0.00,,,0.31,meteohub,2013-07-18 21:16:00,
2013-07-18 17:21:00,77.4,70.0,30.09,West,268,8.0,16.0,78,0.00,,,0.31,meteohub,2013-07-18 21:21:00,
2013-07-18 17:26:00,75.4,69.8,30.09,NW,306,3.0,16.0,83,0.00,,,0.31,meteohub,2013-07-18 21:26:00,
2013-07-18 17:31:00,74.7,70.2,30.09,WNW,286,2.0,16.0,86,0.00,,,0.31,meteohub,2013-07-18 21:31:00,
2013-07-18 17:37:00,74.5,70.3,30.09,West,264,2.0,14.0,87,0.00,,,0.31,meteohub,2013-07-18 21:37:00,
2013-07-18 17:42:00,74.1,70.3,30.09,West,275,3.0,11.0,88,0.00,,,0.31,meteohub,2013-07-18 21:42:00,
2013-07-18 17:47:00,73.9,70.5,30.09,NW,304,2.0,10.0,89,0.00,,,0.31,meteohub,2013-07-18 21:47:00,
2013-07-18 17:52:00,73.6,70.7,30.09,WNW,303,3.0,10.0,91,0.01,,,0.32,meteohub,2013-07-18 21:52:00,
2013-07-18 17:57:00,73.4,70.5,30.09,WNW,302,5.0,10.0,91,0.01,,,0.32,meteohub,2013-07-18 21:57:00,
2013-07-18 18:02:00,73.2,70.7,30.08,WNW,301,4.0,10.0,92,0.01,,,0.32,meteohub,2013-07-18 22:02:00,
2013-07-18 18:07:00,73.4,70.9,30.09,WSW,256,0.0,9.0,92,0.01,,,0.32,meteohub,2013-07-18 22:07:00,
2013-07-18 18:12:00,73.6,70.7,30.09,WSW,250,1.0,9.0,91,0.01,,,0.32,meteohub,2013-07-18 22:12:00,
2013-07-18 18:17:00,73.2,70.2,30.09,WNW,298,0.0,9.0,90,0.01,,,0.32,meteohub,2013-07-18 22:17:00,
2013-07-18 18:22:00,73.2,70.2,30.08,NW,325,1.0,8.0,90,0.01,,,0.32,meteohub,2013-07-18 22:22:00,
2013-07-18 18:27:00,73.2,70.2,30.08,West,263,0.0,8.0,90,0.01,,,0.32,meteohub,2013-07-18 22:27:00,
2013-07-18 18:32:00,73.0,70.0,30.09,WNW,295,1.0,8.0,90,0.01,,,0.32,meteohub,2013-07-18 22:32:00,
2013-07-18 18:37:00,73.0,70.3,30.09,West,271,2.0,5.0,91,0.01,,,0.32,meteohub,2013-07-18 22:37:00,
2013-07-18 18:42:00,72.9,70.3,30.09,West,262,0.0,4.0,92,0.02,,,0.33,meteohub,2013-07-18 22:42:00,
2013-07-18 18:47:00,72.7,70.2,30.09,West,264,1.0,4.0,92,0.02,,,0.33,meteohub,2013-07-18 22:47:00,
2013-07-18 18:52:00,72.7,70.5,30.10,West,267,0.0,4.0,93,0.02,,,0.34,meteohub,2013-07-18 22:52:00,
2013-07-18 18:57:00,72.7,70.5,30.10,West,267,0.0,4.0,93,0.03,,,0.35,meteohub,2013-07-18 22:57:00,
2013-07-18 19:02:00,72.7,70.5,30.11,West,267,0.0,2.0,93,0.04,,,0.36,meteohub,2013-07-18 23:02:00,
2013-07-18 19:07:00,72.7,70.9,30.11,West,269,0.0,0.0,94,0.05,,,0.37,meteohub,2013-07-18 23:07:00,
2013-07-18 19:12:00,72.7,70.9,30.11,West,269,0.0,0.0,94,0.06,,,0.38,meteohub,2013-07-18 23:12:00,
2013-07-18 19:17:00,72.3,70.2,30.12,West,269,0.0,0.0,93,0.06,,,0.38,meteohub,2013-07-18 23:17:00,
2013-07-18 19:22:00,72.3,70.5,30.12,West,269,0.0,0.0,94,0.07,,,0.39,meteohub,2013-07-18 23:22:00,
2013-07-18 19:28:00,72.1,70.3,30.12,West,269,0.0,0.0,94,0.08,,,0.40,meteohub,2013-07-18 23:28:00,
2013-07-18 19:33:00,72.1,70.7,30.11,West,269,0.0,0.0,95,0.08,,,0.40,meteohub,2013-07-18 23:33:00,
2013-07-18 19:38:00,72.1,70.7,30.11,West,269,0.0,0.0,95,0.08,,,0.40,meteohub,2013-07-18 23:38:00,
2013-07-18 19:43:00,72.1,70.7,30.11,West,269,0.0,0.0,95,0.07,,,0.40,meteohub,2013-07-18 23:43:00,
2013-07-18 19:48:00,72.1,70.7,30.11,West,269,0.0,0.0,95,0.07,,,0.41,meteohub,2013-07-18 23:48:00,
2013-07-18 19:53:00,72.1,70.7,30.12,West,269,0.0,0.0,95,0.07,,,0.41,meteohub,2013-07-18 23:53:00,
2013-07-18 19:58:00,72.1,70.7,30.12,West,269,0.0,0.0,95,0.06,,,0.41,meteohub,2013-07-18 23:58:00,
2013-07-18 20:03:00,72.1,70.7,30.12,West,269,0.0,0.0,95,0.06,,,0.42,meteohub,2013-07-19 00:03:00,
2013-07-18 20:08:00,72.1,70.7,30.12,West,266,0.0,0.0,95,0.05,,,0.00,meteohub,2013-07-19 00:08:00,
2013-07-18 20:13:00,72.1,70.9,30.13,SSE,159,0.0,1.0,96,0.06,,,0.02,meteohub,2013-07-19 00:13:00,
2013-07-18 20:18:00,72.1,70.9,30.12,SSE,160,0.0,1.0,96,0.07,,,0.02,meteohub,2013-07-19 00:18:00,
2013-07-18 20:23:00,72.1,70.9,30.12,SSE,160,0.0,1.0,96,0.07,,,0.04,meteohub,2013-07-19 00:23:00,
2013-07-18 20:28:00,72.1,70.9,30.12,SSE,160,0.0,0.0,96,0.08,,,0.06,meteohub,2013-07-19 00:28:00,
2013-07-18 20:33:00,72.1,70.9,30.12,SSE,160,0.0,0.0,96,0.08,,,0.06,meteohub,2013-07-19 00:33:00,
2013-07-18 20:38:00,72.3,71.1,30.12,SSE,160,0.0,0.0,96,0.10,,,0.08,meteohub,2013-07-19 00:38:00,
2013-07-18 20:43:00,72.3,71.4,30.12,SSE,160,0.0,0.0,97,0.10,,,0.08,meteohub,2013-07-19 00:43:00,
2013-07-18 20:48:00,72.3,71.4,30.12,SSE,160,0.0,0.0,97,0.11,,,0.10,meteohub,2013-07-19 00:48:00,
2013-07-18 20:53:00,72.5,71.6,30.11,SSE,160,0.0,0.0,97,0.11,,,0.10,meteohub,2013-07-19 00:53:00,
2013-07-18 20:58:00,72.7,71.8,30.11,SSE,160,0.0,0.0,97,0.11,,,0.10,meteohub,2013-07-19 00:58:00,
2013-07-18 21:03:00,72.7,71.8,30.11,SSE,160,0.0,0.0,97,0.11,,,0.11,meteohub,2013-07-19 01:03:00,
2013-07-18 21:08:00,72.9,72.0,30.10,SSE,160,0.0,0.0,97,0.11,,,0.11,meteohub,2013-07-19 01:08:00,
2013-07-18 21:13:00,72.9,72.0,30.10,SSE,160,0.0,0.0,97,0.10,,,0.12,meteohub,2013-07-19 01:13:00,
2013-07-18 21:18:00,72.9,72.0,30.09,SSE,160,0.0,0.0,97,0.09,,,0.12,meteohub,2013-07-19 01:18:00,
2013-07-18 21:23:00,73.0,72.1,30.09,SSE,160,0.0,0.0,97,0.08,,,0.12,meteohub,2013-07-19 01:23:00,
2013-07-18 21:28:00,73.0,72.1,30.09,SSE,160,0.0,0.0,97,0.06,,,0.12,meteohub,2013-07-19 01:28:00,
2013-07-18 21:33:00,73.0,72.1,30.08,SSE,160,0.0,0.0,97,0.05,,,0.12,meteohub,2013-07-19 01:33:00,
2013-07-18 21:38:00,73.2,72.3,30.08,SSE,160,0.0,0.0,97,0.04,,,0.12,meteohub,2013-07-19 01:38:00,
2013-07-18 21:43:00,73.2,72.3,30.07,SSE,160,0.0,0.0,97,0.03,,,0.12,meteohub,2013-07-19 01:43:00,
2013-07-18 21:48:00,73.2,72.3,30.07,SSE,160,0.0,0.0,97,0.02,,,0.12,meteohub,2013-07-19 01:48:00,
2013-07-18 21:53:00,73.0,72.1,30.07,SSE,160,0.0,0.0,97,0.03,,,0.13,meteohub,2013-07-19 01:53:00,
2013-07-18 21:58:00,73.0,72.1,30.07,SSE,160,0.0,0.0,97,0.03,,,0.13,meteohub,2013-07-19 01:58:00,
2013-07-18 22:03:00,72.9,72.0,30.07,SSE,160,0.0,0.0,97,0.02,,,0.13,meteohub,2013-07-19 02:03:00,
2013-07-18 22:08:00,72.9,72.0,30.07,SSE,160,0.0,0.0,97,0.02,,,0.13,meteohub,2013-07-19 02:08:00,
2013-07-18 22:13:00,72.7,71.8,30.07,SSE,160,0.0,0.0,97,0.01,,,0.13,meteohub,2013-07-19 02:13:00,
2013-07-18 22:18:00,72.7,71.8,30.07,SSE,160,0.0,0.0,97,0.01,,,0.13,meteohub,2013-07-19 02:18:00,
2013-07-18 22:23:00,72.7,71.8,30.07,SSE,160,0.0,0.0,97,0.01,,,0.13,meteohub,2013-07-19 02:23:00,
2013-07-18 22:28:00,72.7,71.8,30.07,SSE,160,0.0,0.0,97,0.01,,,0.13,meteohub,2013-07-19 02:28:00,
2013-07-18 22:33:00,72.7,71.8,30.08,SSE,160,0.0,0.0,97,0.01,,,0.13,meteohub,2013-07-19 02:33:00,
2013-07-18 22:38:00,72.7,71.8,30.08,SSE,160,0.0,0.0,97,0.01,,,0.13,meteohub,2013-07-19 02:38:00,
2013-07-18 22:39:00,72.7,71.8,30.08,SSE,160,0.0,0.0,97,0.01,,,0.13,meteohub,2013-07-19 02:39:00,
2013-07-18 22:44:00,72.9,72.0,30.08,SSE,160,0.0,0.0,97,0.01,,,0.13,meteohub,2013-07-19 02:44:00,
2013-07-18 22:49:00,72.9,72.0,30.08,SSE,160,0.0,0.0,97,0.00,,,0.13,meteohub,2013-07-19 02:49:00,
2013-07-18 22:54:00,72.9,72.0,30.08,SSE,160,0.0,0.0,97,0.00,,,0.13,meteohub,2013-07-19 02:54:00,
2013-07-18 22:59:00,72.9,72.0,30.08,SSE,160,0.0,0.0,97,0.00,,,0.13,meteohub,2013-07-19 02:59:00,
2013-07-18 23:04:00,72.7,71.8,30.08,SSE,160,0.0,0.0,97,0.00,,,0.13,meteohub,2013-07-19 03:04:00,
2013-07-18 23:09:00,72.9,72.0,30.08,SSE,160,0.0,0.0,97,0.00,,,0.13,meteohub,2013-07-19 03:09:00,
2013-07-18 23:14:00,72.9,72.0,30.09,SSE,160,0.0,0.0,97,0.00,,,0.13,meteohub,2013-07-19 03:14:00,
2013-07-18 23:19:00,72.9,72.0,30.09,SSE,160,0.0,0.0,97,0.00,,,0.13,meteohub,2013-07-19 03:19:00,
2013-07-18 23:24:00,72.9,72.3,30.09,SSE,160,0.0,0.0,98,0.00,,,0.13,meteohub,2013-07-19 03:24:00,
2013-07-18 23:29:00,72.9,72.0,30.09,SSE,160,0.0,0.0,97,0.00,,,0.13,meteohub,2013-07-19 03:29:00,
2013-07-18 23:34:00,72.9,72.0,30.09,SSE,160,0.0,0.0,97,0.00,,,0.13,meteohub,2013-07-19 03:34:00,
2013-07-18 23:39:00,72.9,72.0,30.09,SSE,160,0.0,0.0,97,0.00,,,0.13,meteohub,2013-07-19 03:39:00,
2013-07-18 23:44:00,72.9,72.0,30.10,SSE,160,0.0,0.0,97,0.00,,,0.13,meteohub,2013-07-19 03:44:00,
2013-07-18 23:49:00,72.9,72.0,30.10,SSE,160,0.0,0.0,97,0.00,,,0.13,meteohub,2013-07-19 03:49:00,
2013-07-18 23:54:00,72.9,72.0,30.10,SSE,160,0.0,0.0,97,0.00,,,0.13,meteohub,2013-07-19 03:54:00,
2013-07-18 23:59:00,72.9,72.0,30.10,SSE,160,0.0,0.0,97,0.00,,,0.13,meteohub,2013-07-19 03:59:00,